sensor_id;sensor_type;location;lat;lon;timestamp;temperature;humidity
18703;DHT22;9481;48.796;9.210;2022-12-18T00:01:21;0.70;44.20
18703;DHT22;9481;48.796;9.210;2022-12-18T00:03:50;0.60;44.10
18703;DHT22;9481;48.796;9.210;2022-12-18T00:06:17;0.60;44.10
18703;DHT22;9481;48.796;9.210;2022-12-18T00:08:44;0.60;44.10
18703;DHT22;9481;48.796;9.210;2022-12-18T00:11:23;0.60;44.10
18703;DHT22;9481;48.796;9.210;2022-12-18T00:13:51;0.60;44.00
18703;DHT22;9481;48.796;9.210;2022-12-18T00:16:19;0.50;43.80
18703;DHT22;9481;48.796;9.210;2022-12-18T00:18:47;0.50;43.90
18703;DHT22;9481;48.796;9.210;2022-12-18T00:21:14;0.50;44.00
18703;DHT22;9481;48.796;9.210;2022-12-18T00:23:42;0.40;44.00
18703;DHT22;9481;48.796;9.210;2022-12-18T00:26:14;0.40;44.00
18703;DHT22;9481;48.796;9.210;2022-12-18T00:28:50;0.40;44.10
18703;DHT22;9481;48.796;9.210;2022-12-18T00:31:19;0.30;44.10
18703;DHT22;9481;48.796;9.210;2022-12-18T00:33:47;0.30;44.20
18703;DHT22;9481;48.796;9.210;2022-12-18T00:36:21;0.30;44.30
18703;DHT22;9481;48.796;9.210;2022-12-18T00:38:48;0.20;44.40
18703;DHT22;9481;48.796;9.210;2022-12-18T00:41:16;0.20;44.30
18703;DHT22;9481;48.796;9.210;2022-12-18T00:44:03;0.20;44.30
18703;DHT22;9481;48.796;9.210;2022-12-18T00:46:31;0.10;44.30
18703;DHT22;9481;48.796;9.210;2022-12-18T00:48:57;0.10;44.30
18703;DHT22;9481;48.796;9.210;2022-12-18T00:51:25;0.10;44.20
18703;DHT22;9481;48.796;9.210;2022-12-18T00:53:52;0.10;43.90
18703;DHT22;9481;48.796;9.210;2022-12-18T00:56:18;0.00;43.80
18703;DHT22;9481;48.796;9.210;2022-12-18T00:58:44;0.00;43.80
18703;DHT22;9481;48.796;9.210;2022-12-18T01:01:10;-0.10;43.80
18703;DHT22;9481;48.796;9.210;2022-12-18T01:03:35;-0.10;43.90
18703;DHT22;9481;48.796;9.210;2022-12-18T01:06:09;-0.20;44.00
18703;DHT22;9481;48.796;9.210;2022-12-18T01:08:37;-0.10;44.30
18703;DHT22;9481;48.796;9.210;2022-12-18T01:11:08;-0.20;44.30
18703;DHT22;9481;48.796;9.210;2022-12-18T01:13:40;-0.10;44.50
18703;DHT22;9481;48.796;9.210;2022-12-18T01:16:06;-0.10;44.50
18703;DHT22;9481;48.796;9.210;2022-12-18T01:18:32;-0.10;44.50
18703;DHT22;9481;48.796;9.210;2022-12-18T01:20:58;-0.10;44.50
18703;DHT22;9481;48.796;9.210;2022-12-18T01:23:24;-0.10;44.50
18703;DHT22;9481;48.796;9.210;2022-12-18T01:25:49;-0.10;44.40
18703;DHT22;9481;48.796;9.210;2022-12-18T01:28:15;-0.10;44.20
18703;DHT22;9481;48.796;9.210;2022-12-18T01:30:41;-0.10;44.20
18703;DHT22;9481;48.796;9.210;2022-12-18T01:33:07;-0.10;44.20
18703;DHT22;9481;48.796;9.210;2022-12-18T01:35:32;-0.10;44.10
18703;DHT22;9481;48.796;9.210;2022-12-18T01:37:58;-0.10;43.90
18703;DHT22;9481;48.796;9.210;2022-12-18T01:40:24;-0.10;43.80
18703;DHT22;9481;48.796;9.210;2022-12-18T01:42:53;-0.10;43.70
18703;DHT22;9481;48.796;9.210;2022-12-18T01:45:22;-0.10;43.60
18703;DHT22;9481;48.796;9.210;2022-12-18T01:48:01;-0.10;43.70
18703;DHT22;9481;48.796;9.210;2022-12-18T01:50:42;-0.10;43.90
18703;DHT22;9481;48.796;9.210;2022-12-18T01:53:16;0.00;44.00
18703;DHT22;9481;48.796;9.210;2022-12-18T01:55:51;0.00;43.90
18703;DHT22;9481;48.796;9.210;2022-12-18T01:58:21;0.00;43.70
18703;DHT22;9481;48.796;9.210;2022-12-18T02:00:54;0.00;43.70
18703;DHT22;9481;48.796;9.210;2022-12-18T02:03:21;0.00;43.70
18703;DHT22;9481;48.796;9.210;2022-12-18T02:06:10;0.00;43.80
18703;DHT22;9481;48.796;9.210;2022-12-18T02:11:48;0.10;44.00
18703;DHT22;9481;48.796;9.210;2022-12-18T02:14:23;0.10;44.10
18703;DHT22;9481;48.796;9.210;2022-12-18T02:17:09;0.10;44.10
18703;DHT22;9481;48.796;9.210;2022-12-18T02:28:44;0.30;45.10
18703;DHT22;9481;48.796;9.210;2022-12-18T02:31:19;0.30;44.30
18703;DHT22;9481;48.796;9.210;2022-12-18T02:33:53;0.30;44.20
18703;DHT22;9481;48.796;9.210;2022-12-18T02:36:24;0.30;44.10
18703;DHT22;9481;48.796;9.210;2022-12-18T02:38:54;0.40;44.10
18703;DHT22;9481;48.796;9.210;2022-12-18T02:41:22;0.40;43.60
18703;DHT22;9481;48.796;9.210;2022-12-18T02:43:52;0.40;44.00
18703;DHT22;9481;48.796;9.210;2022-12-18T02:46:32;0.40;43.90
18703;DHT22;9481;48.796;9.210;2022-12-18T02:52:46;0.40;43.50
18703;DHT22;9481;48.796;9.210;2022-12-18T02:58:58;0.40;43.30
18703;DHT22;9481;48.796;9.210;2022-12-18T03:01:31;0.40;43.10
18703;DHT22;9481;48.796;9.210;2022-12-18T03:04:09;0.30;43.10
18703;DHT22;9481;48.796;9.210;2022-12-18T03:06:43;0.30;43.10
18703;DHT22;9481;48.796;9.210;2022-12-18T03:09:17;0.30;43.10
18703;DHT22;9481;48.796;9.210;2022-12-18T03:11:53;0.30;43.10
18703;DHT22;9481;48.796;9.210;2022-12-18T03:14:42;0.30;43.10
18703;DHT22;9481;48.796;9.210;2022-12-18T03:17:13;0.30;43.00
18703;DHT22;9481;48.796;9.210;2022-12-18T03:19:43;0.30;42.90
18703;DHT22;9481;48.796;9.210;2022-12-18T03:22:12;0.20;42.80
18703;DHT22;9481;48.796;9.210;2022-12-18T03:24:39;0.20;42.80
18703;DHT22;9481;48.796;9.210;2022-12-18T03:27:09;0.20;42.70
18703;DHT22;9481;48.796;9.210;2022-12-18T03:29:38;0.20;42.70
18703;DHT22;9481;48.796;9.210;2022-12-18T03:32:30;0.20;42.70
18703;DHT22;9481;48.796;9.210;2022-12-18T03:35:02;0.20;42.50
18703;DHT22;9481;48.796;9.210;2022-12-18T03:37:29;0.10;42.40
18703;DHT22;9481;48.796;9.210;2022-12-18T03:39:56;0.10;42.20
18703;DHT22;9481;48.796;9.210;2022-12-18T03:45:40;0.00;41.90
18703;DHT22;9481;48.796;9.210;2022-12-18T03:51:17;-0.10;41.70
18703;DHT22;9481;48.796;9.210;2022-12-18T03:56:25;-0.10;41.70
18703;DHT22;9481;48.796;9.210;2022-12-18T03:58:56;-0.20;41.70
18703;DHT22;9481;48.796;9.210;2022-12-18T04:01:30;-0.20;41.70
18703;DHT22;9481;48.796;9.210;2022-12-18T04:04:00;-0.20;41.70
18703;DHT22;9481;48.796;9.210;2022-12-18T04:06:28;-0.30;41.60
18703;DHT22;9481;48.796;9.210;2022-12-18T04:08:57;-0.30;41.40
18703;DHT22;9481;48.796;9.210;2022-12-18T04:11:24;-0.30;41.40
18703;DHT22;9481;48.796;9.210;2022-12-18T04:13:49;-0.40;41.20
18703;DHT22;9481;48.796;9.210;2022-12-18T04:16:15;-0.40;41.10
18703;DHT22;9481;48.796;9.210;2022-12-18T04:18:41;-0.40;41.10
18703;DHT22;9481;48.796;9.210;2022-12-18T04:21:06;-0.50;41.10
18703;DHT22;9481;48.796;9.210;2022-12-18T04:23:32;-0.50;41.10
18703;DHT22;9481;48.796;9.210;2022-12-18T04:25:58;-0.50;41.10
18703;DHT22;9481;48.796;9.210;2022-12-18T04:28:23;-0.60;41.00
18703;DHT22;9481;48.796;9.210;2022-12-18T04:30:49;-0.60;41.00
18703;DHT22;9481;48.796;9.210;2022-12-18T04:33:15;-0.60;41.10
18703;DHT22;9481;48.796;9.210;2022-12-18T04:35:40;-0.70;41.00
18703;DHT22;9481;48.796;9.210;2022-12-18T04:38:07;-0.70;41.00
18703;DHT22;9481;48.796;9.210;2022-12-18T04:40:36;-0.70;41.10
18703;DHT22;9481;48.796;9.210;2022-12-18T04:43:03;-0.70;41.20
18703;DHT22;9481;48.796;9.210;2022-12-18T04:45:32;-0.70;41.20
18703;DHT22;9481;48.796;9.210;2022-12-18T04:47:59;-0.80;41.00
18703;DHT22;9481;48.796;9.210;2022-12-18T04:50:26;-0.80;41.20
18703;DHT22;9481;48.796;9.210;2022-12-18T04:52:52;-0.80;41.10
18703;DHT22;9481;48.796;9.210;2022-12-18T04:55:18;-0.80;41.20
18703;DHT22;9481;48.796;9.210;2022-12-18T04:57:44;-0.80;41.10
18703;DHT22;9481;48.796;9.210;2022-12-18T05:00:10;-0.80;41.10
18703;DHT22;9481;48.796;9.210;2022-12-18T05:02:36;-0.80;41.10
18703;DHT22;9481;48.796;9.210;2022-12-18T05:05:02;-0.80;41.00
18703;DHT22;9481;48.796;9.210;2022-12-18T05:07:28;-0.90;40.80
18703;DHT22;9481;48.796;9.210;2022-12-18T05:09:54;-0.90;40.80
18703;DHT22;9481;48.796;9.210;2022-12-18T05:12:19;-0.90;40.80
18703;DHT22;9481;48.796;9.210;2022-12-18T05:14:50;-0.90;40.80
18703;DHT22;9481;48.796;9.210;2022-12-18T05:17:16;-0.90;40.80
18703;DHT22;9481;48.796;9.210;2022-12-18T05:19:42;-0.90;40.80
18703;DHT22;9481;48.796;9.210;2022-12-18T05:22:08;-1.00;40.60
18703;DHT22;9481;48.796;9.210;2022-12-18T05:24:34;-1.00;40.60
18703;DHT22;9481;48.796;9.210;2022-12-18T05:27:00;-1.00;40.70
18703;DHT22;9481;48.796;9.210;2022-12-18T05:29:26;-1.00;40.70
18703;DHT22;9481;48.796;9.210;2022-12-18T05:31:51;-1.00;40.70
18703;DHT22;9481;48.796;9.210;2022-12-18T05:34:17;-1.00;40.40
18703;DHT22;9481;48.796;9.210;2022-12-18T05:36:43;-1.10;40.30
18703;DHT22;9481;48.796;9.210;2022-12-18T05:39:09;-1.10;40.20
18703;DHT22;9481;48.796;9.210;2022-12-18T05:41:35;-1.10;40.30
18703;DHT22;9481;48.796;9.210;2022-12-18T05:44:00;-1.10;40.40
18703;DHT22;9481;48.796;9.210;2022-12-18T05:46:26;-1.10;40.40
18703;DHT22;9481;48.796;9.210;2022-12-18T05:48:52;-1.20;40.30
18703;DHT22;9481;48.796;9.210;2022-12-18T05:51:19;-1.20;40.40
18703;DHT22;9481;48.796;9.210;2022-12-18T05:53:46;-1.20;40.40
18703;DHT22;9481;48.796;9.210;2022-12-18T05:56:18;-1.20;40.50
18703;DHT22;9481;48.796;9.210;2022-12-18T05:58:46;-1.20;40.50
18703;DHT22;9481;48.796;9.210;2022-12-18T06:01:18;-1.20;40.60
18703;DHT22;9481;48.796;9.210;2022-12-18T06:03:46;-1.20;40.60
18703;DHT22;9481;48.796;9.210;2022-12-18T06:06:16;-1.20;40.70
18703;DHT22;9481;48.796;9.210;2022-12-18T06:08:44;-1.20;40.70
18703;DHT22;9481;48.796;9.210;2022-12-18T06:11:10;-1.20;40.70
18703;DHT22;9481;48.796;9.210;2022-12-18T06:13:37;-1.20;40.70
18703;DHT22;9481;48.796;9.210;2022-12-18T06:16:04;-1.20;40.70
18703;DHT22;9481;48.796;9.210;2022-12-18T06:18:31;-1.20;40.70
18703;DHT22;9481;48.796;9.210;2022-12-18T06:20:59;-1.20;40.70
18703;DHT22;9481;48.796;9.210;2022-12-18T06:23:25;-1.20;40.80
18703;DHT22;9481;48.796;9.210;2022-12-18T06:25:51;-1.20;40.90
18703;DHT22;9481;48.796;9.210;2022-12-18T06:28:18;-1.20;40.80
18703;DHT22;9481;48.796;9.210;2022-12-18T06:30:48;-1.20;41.00
18703;DHT22;9481;48.796;9.210;2022-12-18T06:33:15;-1.20;40.90
18703;DHT22;9481;48.796;9.210;2022-12-18T06:35:41;-1.20;40.90
18703;DHT22;9481;48.796;9.210;2022-12-18T06:38:07;-1.20;40.90
18703;DHT22;9481;48.796;9.210;2022-12-18T06:40:33;-1.20;40.90
18703;DHT22;9481;48.796;9.210;2022-12-18T06:42:59;-1.20;40.90
18703;DHT22;9481;48.796;9.210;2022-12-18T06:45:25;-1.20;40.90
18703;DHT22;9481;48.796;9.210;2022-12-18T06:47:50;-1.20;40.90
18703;DHT22;9481;48.796;9.210;2022-12-18T06:50:16;-1.20;41.00
18703;DHT22;9481;48.796;9.210;2022-12-18T06:52:42;-1.20;41.80
18703;DHT22;9481;48.796;9.210;2022-12-18T06:55:09;-1.00;46.00
18703;DHT22;9481;48.796;9.210;2022-12-18T06:57:36;-0.70;48.70
18703;DHT22;9481;48.796;9.210;2022-12-18T07:00:04;-0.30;48.40
18703;DHT22;9481;48.796;9.210;2022-12-18T07:02:31;0.10;47.70
18703;DHT22;9481;48.796;9.210;2022-12-18T07:04:57;0.50;46.40
18703;DHT22;9481;48.796;9.210;2022-12-18T07:07:22;0.80;43.60
18703;DHT22;9481;48.796;9.210;2022-12-18T07:09:50;0.90;42.00
18703;DHT22;9481;48.796;9.210;2022-12-18T07:12:16;0.90;40.90
18703;DHT22;9481;48.796;9.210;2022-12-18T07:14:42;0.80;40.20
18703;DHT22;9481;48.796;9.210;2022-12-18T07:17:08;0.70;39.80
18703;DHT22;9481;48.796;9.210;2022-12-18T07:19:34;0.60;39.70
18703;DHT22;9481;48.796;9.210;2022-12-18T07:22:00;0.50;39.70
18703;DHT22;9481;48.796;9.210;2022-12-18T07:24:26;0.30;39.70
18703;DHT22;9481;48.796;9.210;2022-12-18T07:26:51;0.20;39.80
18703;DHT22;9481;48.796;9.210;2022-12-18T07:29:17;0.10;39.90
18703;DHT22;9481;48.796;9.210;2022-12-18T07:31:43;0.00;40.20
18703;DHT22;9481;48.796;9.210;2022-12-18T07:34:13;-0.10;40.20
18703;DHT22;9481;48.796;9.210;2022-12-18T07:36:40;-0.10;40.30
18703;DHT22;9481;48.796;9.210;2022-12-18T07:39:06;-0.20;40.40
18703;DHT22;9481;48.796;9.210;2022-12-18T07:41:32;-0.30;40.70
18703;DHT22;9481;48.796;9.210;2022-12-18T07:43:58;-0.30;40.90
18703;DHT22;9481;48.796;9.210;2022-12-18T07:46:24;-0.30;41.00
18703;DHT22;9481;48.796;9.210;2022-12-18T07:48:50;-0.40;41.00
18703;DHT22;9481;48.796;9.210;2022-12-18T07:51:16;-0.40;41.10
18703;DHT22;9481;48.796;9.210;2022-12-18T07:53:42;-0.40;41.20
18703;DHT22;9481;48.796;9.210;2022-12-18T07:56:10;-0.40;41.30
18703;DHT22;9481;48.796;9.210;2022-12-18T07:58:37;-0.30;42.30
18703;DHT22;9481;48.796;9.210;2022-12-18T08:01:11;-0.30;41.70
18703;DHT22;9481;48.796;9.210;2022-12-18T08:03:38;-0.30;41.80
18703;DHT22;9481;48.796;9.210;2022-12-18T08:06:06;-0.30;42.00
18703;DHT22;9481;48.796;9.210;2022-12-18T08:08:34;-0.30;42.10
18703;DHT22;9481;48.796;9.210;2022-12-18T08:11:01;-0.30;42.10
18703;DHT22;9481;48.796;9.210;2022-12-18T08:13:27;-0.20;42.30
18703;DHT22;9481;48.796;9.210;2022-12-18T08:16:04;-0.20;42.40
18703;DHT22;9481;48.796;9.210;2022-12-18T08:18:33;-0.20;42.40
18703;DHT22;9481;48.796;9.210;2022-12-18T08:21:17;-0.10;42.50
18703;DHT22;9481;48.796;9.210;2022-12-18T08:23:46;-0.10;42.90
18703;DHT22;9481;48.796;9.210;2022-12-18T08:26:13;-0.10;43.60
18703;DHT22;9481;48.796;9.210;2022-12-18T08:28:39;0.00;43.10
18703;DHT22;9481;48.796;9.210;2022-12-18T08:31:06;0.00;42.90
18703;DHT22;9481;48.796;9.210;2022-12-18T08:33:33;0.10;43.00
18703;DHT22;9481;48.796;9.210;2022-12-18T08:36:00;0.10;43.10
18703;DHT22;9481;48.796;9.210;2022-12-18T08:38:27;0.20;43.40
18703;DHT22;9481;48.796;9.210;2022-12-18T08:41:07;0.20;43.60
18703;DHT22;9481;48.796;9.210;2022-12-18T08:43:34;0.30;43.90
18703;DHT22;9481;48.796;9.210;2022-12-18T08:46:19;0.30;43.70
18703;DHT22;9481;48.796;9.210;2022-12-18T08:48:46;0.40;43.70
18703;DHT22;9481;48.796;9.210;2022-12-18T08:51:13;0.40;43.80
18703;DHT22;9481;48.796;9.210;2022-12-18T08:53:41;0.50;43.90
18703;DHT22;9481;48.796;9.210;2022-12-18T08:56:07;0.50;44.00
18703;DHT22;9481;48.796;9.210;2022-12-18T08:58:33;0.60;44.00
18703;DHT22;9481;48.796;9.210;2022-12-18T09:01:06;0.60;44.00
18703;DHT22;9481;48.796;9.210;2022-12-18T09:03:38;0.70;44.10
18703;DHT22;9481;48.796;9.210;2022-12-18T09:06:04;0.80;44.00
18703;DHT22;9481;48.796;9.210;2022-12-18T09:08:30;0.80;43.90
18703;DHT22;9481;48.796;9.210;2022-12-18T09:10:56;0.90;43.90
18703;DHT22;9481;48.796;9.210;2022-12-18T09:13:22;0.90;43.90
18703;DHT22;9481;48.796;9.210;2022-12-18T09:15:50;1.00;43.80
18703;DHT22;9481;48.796;9.210;2022-12-18T09:18:19;1.00;43.80
18703;DHT22;9481;48.796;9.210;2022-12-18T09:20:46;1.10;43.80
18703;DHT22;9481;48.796;9.210;2022-12-18T09:23:12;1.10;43.80
18703;DHT22;9481;48.796;9.210;2022-12-18T09:25:38;1.10;43.80
18703;DHT22;9481;48.796;9.210;2022-12-18T09:28:05;1.20;43.90
18703;DHT22;9481;48.796;9.210;2022-12-18T09:30:38;1.20;43.90
18703;DHT22;9481;48.796;9.210;2022-12-18T09:33:04;1.20;43.80
18703;DHT22;9481;48.796;9.210;2022-12-18T09:35:29;1.30;43.80
18703;DHT22;9481;48.796;9.210;2022-12-18T09:37:55;1.30;43.70
18703;DHT22;9481;48.796;9.210;2022-12-18T09:40:24;1.30;43.80
18703;DHT22;9481;48.796;9.210;2022-12-18T09:42:55;1.40;43.90
18703;DHT22;9481;48.796;9.210;2022-12-18T09:45:25;1.40;43.90
18703;DHT22;9481;48.796;9.210;2022-12-18T09:47:52;1.50;43.90
18703;DHT22;9481;48.796;9.210;2022-12-18T09:53:00;1.50;43.90
18703;DHT22;9481;48.796;9.210;2022-12-18T09:55:38;1.50;43.90
18703;DHT22;9481;48.796;9.210;2022-12-18T09:58:28;1.60;44.00
18703;DHT22;9481;48.796;9.210;2022-12-18T10:00:58;1.60;44.10
18703;DHT22;9481;48.796;9.210;2022-12-18T10:03:24;1.70;44.20
18703;DHT22;9481;48.796;9.210;2022-12-18T10:08:30;1.70;44.20
18703;DHT22;9481;48.796;9.210;2022-12-18T10:17:12;1.80;44.20
18703;DHT22;9481;48.796;9.210;2022-12-18T10:19:53;1.90;44.40
18703;DHT22;9481;48.796;9.210;2022-12-18T10:22:35;1.90;44.40
18703;DHT22;9481;48.796;9.210;2022-12-18T10:28:10;2.00;44.50
18703;DHT22;9481;48.796;9.210;2022-12-18T10:30:40;2.00;44.30
18703;DHT22;9481;48.796;9.210;2022-12-18T10:33:16;2.00;44.10
18703;DHT22;9481;48.796;9.210;2022-12-18T10:35:45;2.00;44.10
18703;DHT22;9481;48.796;9.210;2022-12-18T10:43:37;2.10;44.40
18703;DHT22;9481;48.796;9.210;2022-12-18T10:51:40;2.30;44.80
18703;DHT22;9481;48.796;9.210;2022-12-18T10:54:22;2.30;44.90
18703;DHT22;9481;48.796;9.210;2022-12-18T10:56:49;2.50;45.10
18703;DHT22;9481;48.796;9.210;2022-12-18T10:59:16;2.60;45.10
18703;DHT22;9481;48.796;9.210;2022-12-18T11:04:18;2.80;45.10
18703;DHT22;9481;48.796;9.210;2022-12-18T11:07:07;2.90;45.10
18703;DHT22;9481;48.796;9.210;2022-12-18T11:09:39;3.00;45.20
18703;DHT22;9481;48.796;9.210;2022-12-18T11:12:19;3.10;45.20
18703;DHT22;9481;48.796;9.210;2022-12-18T11:14:50;3.30;45.80
18703;DHT22;9481;48.796;9.210;2022-12-18T11:20:10;3.60;45.50
18703;DHT22;9481;48.796;9.210;2022-12-18T11:23:05;3.80;45.20
18703;DHT22;9481;48.796;9.210;2022-12-18T11:25:38;4.00;45.20
18703;DHT22;9481;48.796;9.210;2022-12-18T11:31:28;4.40;45.00
18703;DHT22;9481;48.796;9.210;2022-12-18T11:34:30;4.60;45.40
18703;DHT22;9481;48.796;9.210;2022-12-18T11:36:58;5.00;45.20
18703;DHT22;9481;48.796;9.210;2022-12-18T11:39:43;5.30;46.30
18703;DHT22;9481;48.796;9.210;2022-12-18T11:42:22;5.80;46.80
18703;DHT22;9481;48.796;9.210;2022-12-18T11:45:27;6.40;46.20
18703;DHT22;9481;48.796;9.210;2022-12-18T11:48:12;7.20;45.20
18703;DHT22;9481;48.796;9.210;2022-12-18T11:50:56;7.80;45.10
18703;DHT22;9481;48.796;9.210;2022-12-18T11:53:26;8.50;43.80
18703;DHT22;9481;48.796;9.210;2022-12-18T11:59:23;9.70;41.50
18703;DHT22;9481;48.796;9.210;2022-12-18T12:02:28;10.20;39.60
18703;DHT22;9481;48.796;9.210;2022-12-18T12:14:54;12.00;37.10
18703;DHT22;9481;48.796;9.210;2022-12-18T12:17:44;12.20;35.00
18703;DHT22;9481;48.796;9.210;2022-12-18T12:23:48;12.30;34.10
18703;DHT22;9481;48.796;9.210;2022-12-18T12:29:19;12.20;34.20
18703;DHT22;9481;48.796;9.210;2022-12-18T12:32:13;12.20;34.50
18703;DHT22;9481;48.796;9.210;2022-12-18T12:35:04;12.00;34.50
18703;DHT22;9481;48.796;9.210;2022-12-18T12:38:05;11.90;33.50
18703;DHT22;9481;48.796;9.210;2022-12-18T12:40:39;11.80;33.20
18703;DHT22;9481;48.796;9.210;2022-12-18T12:46:12;11.40;33.40
18703;DHT22;9481;48.796;9.210;2022-12-18T12:49:04;11.20;33.60
18703;DHT22;9481;48.796;9.210;2022-12-18T12:51:40;11.00;33.50
18703;DHT22;9481;48.796;9.210;2022-12-18T12:54:17;10.80;33.90
18703;DHT22;9481;48.796;9.210;2022-12-18T12:57:17;10.60;33.80
18703;DHT22;9481;48.796;9.210;2022-12-18T13:00:04;10.40;33.40
18703;DHT22;9481;48.796;9.210;2022-12-18T13:02:35;10.30;34.00
18703;DHT22;9481;48.796;9.210;2022-12-18T13:08:07;10.00;34.70
18703;DHT22;9481;48.796;9.210;2022-12-18T13:10:46;10.00;34.30
18703;DHT22;9481;48.796;9.210;2022-12-18T13:13:14;9.90;35.90
18703;DHT22;9481;48.796;9.210;2022-12-18T13:15:45;9.90;36.00
18703;DHT22;9481;48.796;9.210;2022-12-18T13:18:18;9.80;36.00
18703;DHT22;9481;48.796;9.210;2022-12-18T13:23:32;9.80;36.30
18703;DHT22;9481;48.796;9.210;2022-12-18T13:31:11;9.60;35.60
18703;DHT22;9481;48.796;9.210;2022-12-18T13:36:23;9.30;35.80
18703;DHT22;9481;48.796;9.210;2022-12-18T13:41:42;8.90;35.70
18703;DHT22;9481;48.796;9.210;2022-12-18T13:44:22;8.70;36.20
18703;DHT22;9481;48.796;9.210;2022-12-18T13:46:51;8.50;36.30
18703;DHT22;9481;48.796;9.210;2022-12-18T13:49:40;8.30;36.50
18703;DHT22;9481;48.796;9.210;2022-12-18T13:52:20;8.10;36.80
18703;DHT22;9481;48.796;9.210;2022-12-18T13:54:51;7.90;37.10
18703;DHT22;9481;48.796;9.210;2022-12-18T13:57:38;7.80;37.30
18703;DHT22;9481;48.796;9.210;2022-12-18T14:00:26;7.60;37.50
18703;DHT22;9481;48.796;9.210;2022-12-18T14:02:54;7.50;37.70
18703;DHT22;9481;48.796;9.210;2022-12-18T14:05:34;7.40;37.90
18703;DHT22;9481;48.796;9.210;2022-12-18T14:08:13;7.20;38.00
18703;DHT22;9481;48.796;9.210;2022-12-18T14:10:42;7.10;38.20
18703;DHT22;9481;48.796;9.210;2022-12-18T14:13:15;7.00;38.30
18703;DHT22;9481;48.796;9.210;2022-12-18T14:15:47;6.90;38.40
18703;DHT22;9481;48.796;9.210;2022-12-18T14:27:20;6.50;39.10
18703;DHT22;9481;48.796;9.210;2022-12-18T14:29:48;6.40;39.40
18703;DHT22;9481;48.796;9.210;2022-12-18T14:32:19;6.20;39.30
18703;DHT22;9481;48.796;9.210;2022-12-18T14:34:47;6.10;39.50
18703;DHT22;9481;48.796;9.210;2022-12-18T14:37:17;6.10;39.60
18703;DHT22;9481;48.796;9.210;2022-12-18T14:39:58;6.00;39.80
18703;DHT22;9481;48.796;9.210;2022-12-18T14:42:27;5.90;40.10
18703;DHT22;9481;48.796;9.210;2022-12-18T14:48:06;5.80;40.30
18703;DHT22;9481;48.796;9.210;2022-12-18T14:50:43;5.70;40.20
18703;DHT22;9481;48.796;9.210;2022-12-18T14:53:22;5.60;40.20
18703;DHT22;9481;48.796;9.210;2022-12-18T14:55:53;5.60;40.50
18703;DHT22;9481;48.796;9.210;2022-12-18T14:58:19;5.50;40.40
18703;DHT22;9481;48.796;9.210;2022-12-18T15:00:44;5.50;40.60
18703;DHT22;9481;48.796;9.210;2022-12-18T15:03:12;5.40;40.60
18703;DHT22;9481;48.796;9.210;2022-12-18T15:05:45;5.30;40.70
18703;DHT22;9481;48.796;9.210;2022-12-18T15:08:39;5.20;40.70
18703;DHT22;9481;48.796;9.210;2022-12-18T15:11:29;5.20;41.10
18703;DHT22;9481;48.796;9.210;2022-12-18T15:14:00;5.20;41.20
18703;DHT22;9481;48.796;9.210;2022-12-18T15:16:50;5.10;41.00
18703;DHT22;9481;48.796;9.210;2022-12-18T15:19:19;5.00;41.10
18703;DHT22;9481;48.796;9.210;2022-12-18T15:21:46;4.90;41.00
18703;DHT22;9481;48.796;9.210;2022-12-18T15:24:18;4.90;41.20
18703;DHT22;9481;48.796;9.210;2022-12-18T15:26:49;4.80;41.40
18703;DHT22;9481;48.796;9.210;2022-12-18T15:29:20;4.80;41.40
18703;DHT22;9481;48.796;9.210;2022-12-18T15:32:02;4.70;41.60
18703;DHT22;9481;48.796;9.210;2022-12-18T15:34:31;4.70;41.90
18703;DHT22;9481;48.796;9.210;2022-12-18T15:36:59;4.60;41.70
18703;DHT22;9481;48.796;9.210;2022-12-18T15:39:25;4.60;41.70
18703;DHT22;9481;48.796;9.210;2022-12-18T15:41:51;4.50;41.80
18703;DHT22;9481;48.796;9.210;2022-12-18T15:44:39;4.50;42.00
18703;DHT22;9481;48.796;9.210;2022-12-18T15:47:11;4.50;42.10
18703;DHT22;9481;48.796;9.210;2022-12-18T15:49:37;4.50;42.30
18703;DHT22;9481;48.796;9.210;2022-12-18T15:52:04;4.40;42.20
18703;DHT22;9481;48.796;9.210;2022-12-18T15:54:29;4.40;42.40
18703;DHT22;9481;48.796;9.210;2022-12-18T15:57:21;4.40;42.50
18703;DHT22;9481;48.796;9.210;2022-12-18T15:59:51;4.30;42.50
18703;DHT22;9481;48.796;9.210;2022-12-18T16:02:19;4.30;42.60
18703;DHT22;9481;48.796;9.210;2022-12-18T16:04:45;4.30;42.70
18703;DHT22;9481;48.796;9.210;2022-12-18T16:07:12;4.20;42.70
18703;DHT22;9481;48.796;9.210;2022-12-18T16:09:38;4.20;42.80
18703;DHT22;9481;48.796;9.210;2022-12-18T16:12:05;4.20;42.80
18703;DHT22;9481;48.796;9.210;2022-12-18T16:14:32;4.10;42.80
18703;DHT22;9481;48.796;9.210;2022-12-18T16:17:05;4.10;42.90
18703;DHT22;9481;48.796;9.210;2022-12-18T16:19:34;4.10;43.00
18703;DHT22;9481;48.796;9.210;2022-12-18T16:21:59;4.10;42.90
18703;DHT22;9481;48.796;9.210;2022-12-18T16:24:30;4.10;43.10
18703;DHT22;9481;48.796;9.210;2022-12-18T16:26:59;4.00;43.10
18703;DHT22;9481;48.796;9.210;2022-12-18T16:29:27;4.00;43.10
18703;DHT22;9481;48.796;9.210;2022-12-18T16:31:55;4.00;43.20
18703;DHT22;9481;48.796;9.210;2022-12-18T16:34:29;4.00;43.10
18703;DHT22;9481;48.796;9.210;2022-12-18T16:37:03;4.00;43.20
18703;DHT22;9481;48.796;9.210;2022-12-18T16:39:29;3.90;43.20
18703;DHT22;9481;48.796;9.210;2022-12-18T16:41:56;3.90;43.30
18703;DHT22;9481;48.796;9.210;2022-12-18T16:44:22;3.90;43.30
18703;DHT22;9481;48.796;9.210;2022-12-18T16:46:48;3.90;43.40
18703;DHT22;9481;48.796;9.210;2022-12-18T16:49:15;3.90;43.50
18703;DHT22;9481;48.796;9.210;2022-12-18T16:51:42;3.90;43.70
18703;DHT22;9481;48.796;9.210;2022-12-18T16:54:08;3.80;43.70
18703;DHT22;9481;48.796;9.210;2022-12-18T16:56:35;3.90;44.00
18703;DHT22;9481;48.796;9.210;2022-12-18T16:59:02;3.90;44.10
18703;DHT22;9481;48.796;9.210;2022-12-18T17:01:29;3.80;43.90
18703;DHT22;9481;48.796;9.210;2022-12-18T17:04:01;3.80;43.70
18703;DHT22;9481;48.796;9.210;2022-12-18T17:06:31;3.90;44.00
18703;DHT22;9481;48.796;9.210;2022-12-18T17:09:21;3.80;43.90
18703;DHT22;9481;48.796;9.210;2022-12-18T17:11:53;3.80;43.80
18703;DHT22;9481;48.796;9.210;2022-12-18T17:14:21;3.80;43.80
18703;DHT22;9481;48.796;9.210;2022-12-18T17:16:48;3.80;43.80
18703;DHT22;9481;48.796;9.210;2022-12-18T17:19:14;3.80;43.80
18703;DHT22;9481;48.796;9.210;2022-12-18T17:21:42;3.80;43.90
18703;DHT22;9481;48.796;9.210;2022-12-18T17:24:08;3.80;44.00
18703;DHT22;9481;48.796;9.210;2022-12-18T17:26:34;3.80;44.00
18703;DHT22;9481;48.796;9.210;2022-12-18T17:29:01;3.80;44.00
18703;DHT22;9481;48.796;9.210;2022-12-18T17:31:29;3.80;44.00
18703;DHT22;9481;48.796;9.210;2022-12-18T17:33:56;3.80;43.90
18703;DHT22;9481;48.796;9.210;2022-12-18T17:36:22;3.80;43.90
18703;DHT22;9481;48.796;9.210;2022-12-18T17:38:54;3.70;43.70
18703;DHT22;9481;48.796;9.210;2022-12-18T17:41:22;3.70;43.70
18703;DHT22;9481;48.796;9.210;2022-12-18T17:43:57;3.70;43.60
18703;DHT22;9481;48.796;9.210;2022-12-18T17:46:31;3.70;43.60
18703;DHT22;9481;48.796;9.210;2022-12-18T17:48:59;3.70;43.40
18703;DHT22;9481;48.796;9.210;2022-12-18T17:51:26;3.70;43.40
18703;DHT22;9481;48.796;9.210;2022-12-18T17:53:52;3.60;43.40
18703;DHT22;9481;48.796;9.210;2022-12-18T17:56:20;3.60;43.40
18703;DHT22;9481;48.796;9.210;2022-12-18T17:58:48;3.60;43.40
18703;DHT22;9481;48.796;9.210;2022-12-18T18:01:16;3.50;43.40
18703;DHT22;9481;48.796;9.210;2022-12-18T18:03:45;3.50;43.40
18703;DHT22;9481;48.796;9.210;2022-12-18T18:06:11;3.50;43.50
18703;DHT22;9481;48.796;9.210;2022-12-18T18:08:37;3.40;43.40
18703;DHT22;9481;48.796;9.210;2022-12-18T18:11:10;3.40;43.60
18703;DHT22;9481;48.796;9.210;2022-12-18T18:13:57;3.40;43.80